M I D A S
Marine Information and Data Acquisition System
Tripno 1950 of the Zeeleeuw from 2010-09-01 06:23:04 to 2010-09-01 11:33:48
Back to CruiseResearch ActivitiesStationsMapUnderway DataData graphs

EquipmentUnitsComment
TimeDGPSUTC
LatitudeDGPSDM.mWGS84
LongitudeDGPSDM.mWGS84
HeadingGyrodeg 
SOGDGPSknotsSpeed over ground
COGDGPSdegCourse over ground
DepthEcho soundermeters200 kHz
Missing or incorrect values are displayed as -999
Navigation data collected by the RV Zeeleeuw from 2010-09-01 05:50:38 to 2010-09-01 11:30:41
                                                                                    Next 1000 lines
Time Latitude Longitude Heading SOG COG Depth
2010-09-01 05:50:49 51°13.662 2°55.959 124.5 0.2 139 7.9
2010-09-01 05:50:53 51°13.663 2°55.958 124.5 0.1 190 8
2010-09-01 05:50:58 51°13.663 2°55.958 124.5 0.1 28 8
2010-09-01 05:51:03 51°13.663 2°55.958 124.5 -999 239 8
2010-09-01 05:51:08 51°13.663 2°55.958 124.5 0.1 133 8
2010-09-01 05:51:13 51°13.663 2°55.958 124.5 -999 1 8
2010-09-01 05:51:17 51°13.663 2°55.958 124.5 0.1 57 8
2010-09-01 05:51:22 51°13.663 2°55.959 124.5 0.1 52 8
2010-09-01 05:51:27 51°13.663 2°55.959 124.5 0.1 54 8
2010-09-01 05:51:33 51°13.663 2°55.959 124.5 -999 62 8
2010-09-01 05:51:37 51°13.663 2°55.958 124.5 -999 54 8
2010-09-01 05:51:42 51°13.663 2°55.958 124.5 -999 102 8
2010-09-01 05:51:48 51°13.663 2°55.958 124.5 -999 274 8
2010-09-01 05:51:53 51°13.663 2°55.958 124.5 -999 233 8
2010-09-01 05:51:57 51°13.663 2°55.958 124.5 0.1 76 8
2010-09-01 05:52:02 51°13.663 2°55.958 124.5 0.1 62 7.9
2010-09-01 05:52:08 51°13.663 2°55.958 124.5 0.1 60 8
2010-09-01 05:52:12 51°13.663 2°55.958 124.5 -999 77 8
2010-09-01 05:52:17 51°13.663 2°55.958 124.5 -999 2 8
2010-09-01 05:52:22 51°13.663 2°55.958 124.5 -999 279 7.9
2010-09-01 05:52:28 51°13.663 2°55.958 124.5 -999 189 8
2010-09-01 05:52:33 51°13.663 2°55.958 124.5 0.1 219 8
2010-09-01 05:52:37 51°13.663 2°55.958 124.5 -999 220 8
2010-09-01 05:52:42 51°13.663 2°55.958 124.5 -999 219 8
2010-09-01 05:52:48 51°13.663 2°55.958 124.5 -999 225 8
2010-09-01 05:52:53 51°13.663 2°55.958 124.5 0.1 221 7.9
2010-09-01 05:52:57 51°13.663 2°55.958 124.5 0.1 62 8
2010-09-01 05:53:02 51°13.663 2°55.958 124.5 -999 286 8
2010-09-01 05:53:08 51°13.663 2°55.958 124.5 -999 294 8
2010-09-01 05:53:13 51°13.663 2°55.958 124.5 -999 198 8
2010-09-01 05:53:17 51°13.663 2°55.958 124.6 -999 355 7.9
2010-09-01 05:53:22 51°13.662 2°55.958 124.7 -999 75 7.9
2010-09-01 05:53:27 51°13.663 2°55.958 124.7 0.1 50 8
2010-09-01 05:53:33 51°13.662 2°55.958 124.7 -999 288 8
2010-09-01 05:53:37 51°13.662 2°55.958 124.7 -999 276 8
2010-09-01 05:53:42 51°13.662 2°55.958 124.7 0.1 88 8
2010-09-01 05:53:48 51°13.662 2°55.958 124.7 -999 35 8
2010-09-01 05:53:53 51°13.662 2°55.958 124.7 0.1 246 8
2010-09-01 05:53:57 51°13.662 2°55.958 124.8 0.1 238 8
2010-09-01 05:54:02 51°13.662 2°55.958 124.8 0.1 233 7.9
2010-09-01 05:54:08 51°13.662 2°55.958 124.8 -999 178 7.9
2010-09-01 05:54:12 51°13.663 2°55.958 124.8 0.1 35 8
2010-09-01 05:54:17 51°13.662 2°55.958 124.8 0.1 35 8
2010-09-01 05:54:22 51°13.662 2°55.958 124.8 0.1 332 7.9
2010-09-01 05:54:28 51°13.662 2°55.957 124.8 0.1 260 7.9
2010-09-01 05:54:33 51°13.662 2°55.958 124.8 -999 141 8
2010-09-01 05:54:37 51°13.662 2°55.958 124.8 0.1 79 8
2010-09-01 05:54:42 51°13.662 2°55.958 124.8 -999 15 7.9
2010-09-01 05:54:47 51°13.662 2°55.958 124.8 -999 104 7.9
2010-09-01 05:54:53 51°13.662 2°55.958 124.6 0.1 32 8
2010-09-01 05:54:57 51°13.662 2°55.958 124.6 0.1 53 7.9
2010-09-01 05:55:02 51°13.662 2°55.958 124.6 0.1 23 7.9
2010-09-01 05:55:08 51°13.662 2°55.958 124.6 -999 265 7.9
2010-09-01 05:55:13 51°13.663 2°55.958 124.6 0.1 53 7.9
2010-09-01 05:55:17 51°13.662 2°55.958 124.6 -999 268 7.9
2010-09-01 05:55:21 51°13.662 2°55.958 124.6 -999 163 8
2010-09-01 05:55:28 51°13.662 2°55.958 124.6 -999 224 7.9
2010-09-01 05:55:32 51°13.663 2°55.958 124.6 -999 324 7.9
2010-09-01 05:55:37 51°13.663 2°55.958 124.6 -999 287 7.9
2010-09-01 05:55:42 51°13.662 2°55.958 124.6 -999 243 7.9
2010-09-01 05:55:48 51°13.662 2°55.958 124.6 -999 75 7.9
2010-09-01 05:55:53 51°13.663 2°55.958 124.6 -999 96 7.9
2010-09-01 05:55:57 51°13.663 2°55.958 124.6 0.1 71 7.8
2010-09-01 05:56:02 51°13.662 2°55.958 124.6 -999 262 7.8
2010-09-01 05:56:07 51°13.662 2°55.958 124.6 -999 254 7.9
2010-09-01 05:56:13 51°13.662 2°55.958 124.6 -999 317 7.9
2010-09-01 05:56:17 51°13.663 2°55.958 124.7 0.1 3 7.9
2010-09-01 05:56:22 51°13.662 2°55.958 124.7 -999 310 7.9
2010-09-01 05:56:28 51°13.663 2°55.958 124.7 -999 239 7.9
2010-09-01 05:56:33 51°13.662 2°55.958 124.7 -999 121 7.9
2010-09-01 05:56:37 51°13.662 2°55.958 124.7 -999 78 7.9
2010-09-01 05:56:42 51°13.662 2°55.958 124.7 -999 223 7.9
2010-09-01 05:56:48 51°13.662 2°55.958 124.7 -999 128 8
2010-09-01 05:56:52 51°13.662 2°55.958 124.7 -999 17 7.8
2010-09-01 05:56:57 51°13.662 2°55.958 124.7 -999 50 7.8
2010-09-01 05:57:02 51°13.662 2°55.958 124.7 0.1 67 7.9
2010-09-01 05:57:08 51°13.662 2°55.958 124.7 -999 225 7.9
2010-09-01 05:57:13 51°13.662 2°55.958 124.7 0.1 103 7.9
2010-09-01 05:57:17 51°13.662 2°55.958 124.7 -999 293 7.9
2010-09-01 05:57:22 51°13.662 2°55.958 124.7 0.1 261 7.9
2010-09-01 05:57:28 51°13.662 2°55.958 124.7 -999 243 7.9
2010-09-01 05:57:33 51°13.662 2°55.958 124.7 -999 47 7.8
2010-09-01 05:57:37 51°13.663 2°55.959 124.7 -999 177 8
2010-09-01 05:57:42 51°13.663 2°55.959 124.7 -999 68 7.9
2010-09-01 05:57:48 51°13.662 2°55.959 124.9 0.1 183 7.9
2010-09-01 05:57:53 51°13.662 2°55.959 125.3 0.1 121 7.9
2010-09-01 05:57:57 51°13.662 2°55.959 125.7 0.1 100 7.9
2010-09-01 05:58:02 51°13.662 2°55.959 126.3 0.1 173 8
2010-09-01 05:58:07 51°13.662 2°55.959 126.7 0.1 145 8
2010-09-01 05:58:13 51°13.662 2°55.959 127.3 0.1 20 8
2010-09-01 05:58:17 51°13.662 2°55.959 127.8 0.1 272 8
2010-09-01 05:58:22 51°13.662 2°55.959 127.8 -999 144 8
2010-09-01 05:58:28 51°13.662 2°55.96 127.7 0.1 87 8
2010-09-01 05:58:33 51°13.662 2°55.959 127.6 0.1 187 8
2010-09-01 05:58:37 51°13.662 2°55.959 127.6 0.1 74 7.9
2010-09-01 05:58:42 51°13.662 2°55.959 127.6 -999 236 8
2010-09-01 05:58:48 51°13.662 2°55.959 127.8 -999 26 8
2010-09-01 05:58:52 51°13.662 2°55.959 127.8 0.1 266 8
2010-09-01 05:58:57 51°13.662 2°55.959 127.8 0.1 232 8
2010-09-01 05:59:02 51°13.662 2°55.96 127.9 0.1 98 7.9
2010-09-01 05:59:08 51°13.662 2°55.96 128 0.1 57 8
2010-09-01 05:59:13 51°13.662 2°55.959 128.2 -999 291 7.9
2010-09-01 05:59:17 51°13.662 2°55.96 128.3 -999 144 7.9
2010-09-01 05:59:22 51°13.662 2°55.96 128.4 0.1 81 7.9
2010-09-01 05:59:28 51°13.662 2°55.959 128.4 -999 16 7.9
2010-09-01 05:59:33 51°13.662 2°55.959 128.4 0.1 254 7.9
2010-09-01 05:59:37 51°13.662 2°55.959 128.4 -999 121 7.9
2010-09-01 05:59:42 51°13.662 2°55.959 128.4 -999 263 7.9
2010-09-01 05:59:48 51°13.662 2°55.96 128.5 -999 99 7.9
2010-09-01 05:59:53 51°13.662 2°55.959 128.5 -999 54 8
2010-09-01 05:59:57 51°13.662 2°55.959 128.5 -999 186 7.9
2010-09-01 06:00:02 51°13.663 2°55.959 128.5 -999 345 8
2010-09-01 06:00:08 51°13.663 2°55.959 128.5 -999 251 7.9
2010-09-01 06:00:13 51°13.663 2°55.959 128.5 -999 246 7.9
2010-09-01 06:00:17 51°13.663 2°55.959 128.5 -999 262 8
2010-09-01 06:00:22 51°13.663 2°55.959 128.5 0.1 248 8
2010-09-01 06:00:27 51°13.663 2°55.959 128.5 -999 273 7.9
2010-09-01 06:00:33 51°13.662 2°55.959 128.5 -999 253 7.9
2010-09-01 06:00:37 51°13.662 2°55.96 128.5 -999 172 7.9
2010-09-01 06:00:41 51°13.662 2°55.96 128.5 -999 111 7.9
2010-09-01 06:00:47 51°13.662 2°55.96 128.5 -999 91 7.9
2010-09-01 06:00:52 51°13.662 2°55.96 128.5 -999 87 7.9
2010-09-01 06:00:57 51°13.662 2°55.959 128.5 0.1 239 7.9
2010-09-01 06:01:02 51°13.661 2°55.96 128.5 0.1 204 7.9
2010-09-01 06:01:08 51°13.661 2°55.96 128.5 0.1 92 7.9
2010-09-01 06:01:13 51°13.661 2°55.96 128.5 -999 303 7.9
2010-09-01 06:01:17 51°13.662 2°55.96 128.5 -999 152 7.9
2010-09-01 06:01:22 51°13.662 2°55.959 128.5 -999 252 8
2010-09-01 06:01:28 51°13.662 2°55.959 128.5 0.1 227 7.9
2010-09-01 06:01:32 51°13.662 2°55.959 128.5 -999 161 8
2010-09-01 06:01:37 51°13.662 2°55.959 128.5 -999 145 8
2010-09-01 06:01:42 51°13.662 2°55.959 128.5 -999 263 8
2010-09-01 06:01:48 51°13.662 2°55.959 128.5 -999 227 7.9
2010-09-01 06:01:53 51°13.662 2°55.96 128.5 -999 85 7.9
2010-09-01 06:01:57 51°13.662 2°55.96 128.5 -999 7 8
2010-09-01 06:02:02 51°13.662 2°55.96 128.5 0.1 58 7.9
2010-09-01 06:02:08 51°13.662 2°55.959 128.5 0.1 261 7.9
2010-09-01 06:02:13 51°13.662 2°55.96 128.5 -999 252 7.9
2010-09-01 06:02:17 51°13.662 2°55.96 128.5 0.1 256 8
2010-09-01 06:02:22 51°13.662 2°55.959 128.5 0.1 260 7.9
2010-09-01 06:02:28 51°13.662 2°55.96 128.5 -999 211 7.9
2010-09-01 06:02:33 51°13.662 2°55.96 128.6 -999 13 7.9
2010-09-01 06:02:37 51°13.662 2°55.96 128.6 -999 289 7.8
2010-09-01 06:02:42 51°13.662 2°55.96 128.6 -999 122 7.9
2010-09-01 06:02:47 51°13.662 2°55.96 128.6 0.1 63 7.9
2010-09-01 06:02:52 51°13.662 2°55.96 128.6 0.1 230 7.9
2010-09-01 06:02:57 51°13.662 2°55.96 128.6 -999 126 7.8
2010-09-01 06:03:02 51°13.662 2°55.96 128.6 0.1 49 7.7
2010-09-01 06:03:08 51°13.662 2°55.96 128.6 0.1 39 7.9
2010-09-01 06:03:13 51°13.662 2°55.96 128.6 0.1 22 7.8
2010-09-01 06:03:17 51°13.662 2°55.959 128.6 0.1 260 7.9
2010-09-01 06:03:22 51°13.662 2°55.96 128.6 0.1 240 7.9
2010-09-01 06:03:27 51°13.662 2°55.96 128.6 0.1 63 7.9
2010-09-01 06:03:32 51°13.662 2°55.96 128.6 0.1 28 7.7
2010-09-01 06:03:37 51°13.662 2°55.96 128.6 -999 225 7.9
2010-09-01 06:03:41 51°13.662 2°55.96 128.6 0.1 2 7.9
2010-09-01 06:03:47 51°13.662 2°55.96 128.6 -999 324 7.9
2010-09-01 06:03:52 51°13.662 2°55.96 128.6 -999 3 7.9
2010-09-01 06:03:57 51°13.662 2°55.96 128.7 -999 179 7.9
2010-09-01 06:04:02 51°13.662 2°55.96 129 -999 292 7.9
2010-09-01 06:04:07 51°13.662 2°55.96 129.3 -999 356 7.9
2010-09-01 06:04:12 51°13.662 2°55.96 129.5 -999 235 7.9
2010-09-01 06:04:17 51°13.662 2°55.96 129.9 -999 59 7.9
2010-09-01 06:04:22 51°13.662 2°55.96 130 -999 85 7.9
2010-09-01 06:04:27 51°13.662 2°55.96 130 0.1 99 7.9
2010-09-01 06:04:32 51°13.662 2°55.96 129.3 0.1 90 7.9
2010-09-01 06:04:37 51°13.662 2°55.961 128.2 0.2 71 7.9
2010-09-01 06:04:41 51°13.662 2°55.961 126.6 -999 165 7.8
2010-09-01 06:04:47 51°13.662 2°55.961 125.3 0.1 229 7.8
2010-09-01 06:04:52 51°13.662 2°55.961 124.3 0.1 205 7.8
2010-09-01 06:04:57 51°13.662 2°55.961 123.2 0.1 167 8
2010-09-01 06:05:02 51°13.662 2°55.961 122.5 0.1 171 7.9
2010-09-01 06:05:07 51°13.662 2°55.961 121.4 0.1 194 7.9
2010-09-01 06:05:12 51°13.662 2°55.961 120.4 0.1 192 7.9
2010-09-01 06:05:17 51°13.662 2°55.96 119.3 0.1 220 7.8
2010-09-01 06:05:22 51°13.661 2°55.961 118.6 0.1 179 7.9
2010-09-01 06:05:27 51°13.661 2°55.96 117.6 0.1 240 7.9
2010-09-01 06:05:32 51°13.661 2°55.96 116.7 0.2 215 7.9
2010-09-01 06:05:37 51°13.661 2°55.961 115.5 0.1 190 7.9
2010-09-01 06:05:42 51°13.661 2°55.961 114.5 0.1 190 7.9
2010-09-01 06:05:47 51°13.661 2°55.96 113.8 0.1 193 7.9
2010-09-01 06:05:52 51°13.661 2°55.96 112.8 0.1 206 7.9
2010-09-01 06:05:57 51°13.661 2°55.96 111.9 0.1 207 7.8
2010-09-01 06:06:02 51°13.661 2°55.96 110.8 0.1 265 8
2010-09-01 06:06:07 51°13.661 2°55.959 110.3 0.3 269 8
2010-09-01 06:06:12 51°13.661 2°55.959 109.8 0.5 289 8
2010-09-01 06:06:17 51°13.661 2°55.957 109.7 0.7 286 7.9
2010-09-01 06:06:22 51°13.661 2°55.954 109.7 1.1 284 8
2010-09-01 06:06:28 51°13.662 2°55.951 109.8 1.5 288 8.1
2010-09-01 06:06:32 51°13.663 2°55.947 110.3 2 289 8.2
2010-09-01 06:06:37 51°13.664 2°55.942 110.8 2.5 290 6.5
2010-09-01 06:06:43 51°13.666 2°55.935 111.6 2.8 290 -999
2010-09-01 06:06:49 51°13.669 2°55.928 112.5 3 294 -999
2010-09-01 06:06:54 51°13.67 2°55.921 113.6 3.2 294 -999
2010-09-01 06:07:00 51°13.673 2°55.913 114.9 3.4 296 -999
2010-09-01 06:07:05 51°13.675 2°55.905 116 3.6 296 -999
2010-09-01 06:07:11 51°13.677 2°55.897 116.7 3.6 297 -999
2010-09-01 06:07:16 51°13.68 2°55.89 116.8 3.6 298 10.7
2010-09-01 06:07:21 51°13.682 2°55.883 116.2 3.6 296 -999
2010-09-01 06:07:26 51°13.684 2°55.875 115.4 3.6 294 -999
2010-09-01 06:07:31 51°13.686 2°55.868 113.7 3.6 293 -999
2010-09-01 06:07:36 51°13.688 2°55.861 112 3.5 292 -999
2010-09-01 06:07:41 51°13.689 2°55.854 110.2 3.5 291 -999
2010-09-01 06:07:46 51°13.691 2°55.846 108.4 3.5 289 -999
2010-09-01 06:07:51 51°13.692 2°55.839 106.8 3.5 286 -999
2010-09-01 06:07:56 51°13.694 2°55.832 105.4 3.4 287 -999
2010-09-01 06:08:01 51°13.695 2°55.824 104.4 3.4 285 -999
2010-09-01 06:08:06 51°13.696 2°55.817 103.3 3.6 284 -999
2010-09-01 06:08:11 51°13.697 2°55.809 102.1 3.7 282 -999
2010-09-01 06:08:16 51°13.698 2°55.801 100.2 3.7 279 -999
2010-09-01 06:08:21 51°13.699 2°55.793 97.7 3.6 278 -999
2010-09-01 06:08:26 51°13.699 2°55.786 95.4 3.5 275 -999
2010-09-01 06:08:31 51°13.699 2°55.778 91.9 3.4 271 -999
2010-09-01 06:08:36 51°13.699 2°55.771 89.2 3.3 268 -999
2010-09-01 06:08:41 51°13.699 2°55.764 86.9 3.1 265 -999
2010-09-01 06:08:46 51°13.698 2°55.758 85.2 2.9 263 -999
2010-09-01 06:08:51 51°13.698 2°55.752 83.7 2.8 261 15.6
2010-09-01 06:08:56 51°13.697 2°55.747 82.2 2.4 259 -999
2010-09-01 06:09:01 51°13.696 2°55.743 80.8 2 255 -999
2010-09-01 06:09:05 51°13.696 2°55.741 78.9 1.5 253 15
2010-09-01 06:09:10 51°13.696 2°55.738 77.2 1 252 14.7
2010-09-01 06:09:15 51°13.695 2°55.737 76.3 0.6 241 14.6
2010-09-01 06:09:21 51°13.695 2°55.737 74.7 0.1 213 14.6
2010-09-01 06:09:25 51°13.695 2°55.738 72.1 0.3 95 14.6
2010-09-01 06:09:30 51°13.695 2°55.74 68.8 0.7 74 14.6
2010-09-01 06:09:34 51°13.696 2°55.742 64.7 1.1 65 14.8
2010-09-01 06:09:40 51°13.697 2°55.745 60 1.3 65 14.9
2010-09-01 06:09:45 51°13.698 2°55.747 54.8 1.2 59 15
2010-09-01 06:09:49 51°13.698 2°55.749 50 1 62 14.9
2010-09-01 06:09:54 51°13.698 2°55.751 46.7 0.7 81 14.8
2010-09-01 06:09:59 51°13.698 2°55.751 44 0.3 127 14.9
2010-09-01 06:10:04 51°13.697 2°55.751 41.6 0.7 171 14.9
2010-09-01 06:10:09 51°13.695 2°55.751 39.7 0.9 194 15
2010-09-01 06:10:13 51°13.694 2°55.75 37.7 1.3 196 15.1
2010-09-01 06:10:18 51°13.692 2°55.749 36.4 1.5 199 14.8
2010-09-01 06:10:23 51°13.69 2°55.748 35.3 1.6 200 14.5
2010-09-01 06:10:29 51°13.687 2°55.746 35.1 1.6 199 -999
2010-09-01 06:10:34 51°13.686 2°55.746 35.2 1.1 200 -999
2010-09-01 06:10:40 51°13.685 2°55.746 36 0.5 150 14.5
2010-09-01 06:10:45 51°13.686 2°55.747 35.2 0.5 57 -999
2010-09-01 06:10:51 51°13.688 2°55.75 32.2 1.5 40 -999
2010-09-01 06:10:56 51°13.69 2°55.752 27.2 1.8 30 -999
2010-09-01 06:11:01 51°13.693 2°55.754 20.4 2.3 24 -999
2010-09-01 06:11:06 51°13.696 2°55.755 15.9 2.4 18 -999
2010-09-01 06:11:11 51°13.7 2°55.756 10.3 2.6 10 4.7
2010-09-01 06:11:16 51°13.703 2°55.757 6 2.7 9 15.5
2010-09-01 06:11:21 51°13.707 2°55.757 1.6 2.7 359 15.7
2010-09-01 06:11:25 51°13.71 2°55.757 357.6 2.8 -999 15.3
2010-09-01 06:11:30 51°13.714 2°55.756 352.9 3 352 15.4
2010-09-01 06:11:35 51°13.718 2°55.754 347 3.1 343 14.9
2010-09-01 06:11:40 51°13.722 2°55.751 340.2 3.3 336 14.9
2010-09-01 06:11:45 51°13.726 2°55.746 333.2 3.4 328 14.2
2010-09-01 06:11:49 51°13.73 2°55.743 327.4 3.6 327 14
2010-09-01 06:11:54 51°13.734 2°55.738 323.8 3.8 321 13.9
2010-09-01 06:11:59 51°13.738 2°55.732 321.1 4.1 319 13.3
2010-09-01 06:12:04 51°13.742 2°55.725 319.4 4.3 317 13.7
2010-09-01 06:12:09 51°13.747 2°55.718 318.5 4.5 315 13.2
2010-09-01 06:12:13 51°13.75 2°55.712 318.7 4.8 318 13.1
2010-09-01 06:12:19 51°13.757 2°55.703 319.9 5.1 317 13
2010-09-01 06:12:24 51°13.762 2°55.695 320.8 5.3 319 13.6
2010-09-01 06:12:28 51°13.767 2°55.689 321.9 5.6 320 13.6
2010-09-01 06:12:33 51°13.773 2°55.681 323.2 5.7 321 13.5
2010-09-01 06:12:38 51°13.78 2°55.673 325.1 6 325 13.4
2010-09-01 06:12:43 51°13.787 2°55.666 327.2 6.1 326 13.4
2010-09-01 06:12:48 51°13.794 2°55.659 329.4 6.3 328 13.5
2010-09-01 06:12:53 51°13.802 2°55.651 331.2 6.4 330 13.5
2010-09-01 06:12:57 51°13.809 2°55.646 332.3 6.5 331 13.6
2010-09-01 06:13:02 51°13.817 2°55.64 333.6 6.6 333 13.5
2010-09-01 06:13:07 51°13.825 2°55.633 335.4 6.7 335 13.2
2010-09-01 06:13:12 51°13.834 2°55.627 336.3 6.8 336 13.1
2010-09-01 06:13:17 51°13.843 2°55.621 336.3 6.9 335 13.1
2010-09-01 06:13:22 51°13.852 2°55.615 336.1 7 336 12.9
2010-09-01 06:13:27 51°13.861 2°55.608 336 7.1 335 12.5
2010-09-01 06:13:32 51°13.87 2°55.601 335.6 7.2 335 12.3
2010-09-01 06:13:37 51°13.879 2°55.595 335.5 7.3 335 12.2
2010-09-01 06:13:42 51°13.888 2°55.588 335.7 7.4 335 12.3
2010-09-01 06:13:47 51°13.898 2°55.581 336.1 7.5 335 12.4
2010-09-01 06:13:52 51°13.907 2°55.573 336.1 7.6 334 12.7
2010-09-01 06:13:57 51°13.917 2°55.566 335.5 7.6 333 12.7
2010-09-01 06:14:02 51°13.926 2°55.559 335.8 7.6 335 12.7
2010-09-01 06:14:07 51°13.936 2°55.552 336.5 7.7 336 12.8
2010-09-01 06:14:12 51°13.946 2°55.545 336.6 7.7 335 12.7
2010-09-01 06:14:17 51°13.956 2°55.538 335.8 7.8 334 12.7
2010-09-01 06:14:22 51°13.966 2°55.53 335.5 7.9 335 12.5
2010-09-01 06:14:27 51°13.976 2°55.523 335.8 8.1 335 12.6
2010-09-01 06:14:32 51°13.986 2°55.516 336.5 8.2 337 12.8
2010-09-01 06:14:37 51°13.997 2°55.508 336.8 8.3 337 12.5
2010-09-01 06:14:42 51°14.007 2°55.5 335.8 8.5 334 12.4
2010-09-01 06:14:47 51°14.018 2°55.493 335.6 8.5 336 12.3
2010-09-01 06:14:52 51°14.029 2°55.484 335.9 8.6 335 12.3
2010-09-01 06:14:57 51°14.04 2°55.476 336.1 8.6 335 12.4
2010-09-01 06:15:02 51°14.051 2°55.468 336.1 8.8 335 13.1
2010-09-01 06:15:07 51°14.062 2°55.46 336.2 8.8 336 12.4
2010-09-01 06:15:12 51°14.073 2°55.452 337 8.9 336 12.5
2010-09-01 06:15:17 51°14.085 2°55.444 337.1 8.9 336 12.2
2010-09-01 06:15:22 51°14.096 2°55.436 336.9 8.9 336 12.2
2010-09-01 06:15:27 51°14.107 2°55.427 336.1 9 334 12.3
2010-09-01 06:15:33 51°14.121 2°55.417 335.2 9 334 -999
2010-09-01 06:15:37 51°14.13 2°55.409 335 9.1 334 12.2
2010-09-01 06:15:43 51°14.143 2°55.399 334.8 9.1 334 12.3
2010-09-01 06:15:49 51°14.157 2°55.388 334.7 9.2 334 -999
2010-09-01 06:15:53 51°14.166 2°55.38 334.7 9.3 333 -999
2010-09-01 06:15:59 51°14.18 2°55.369 334.3 9.5 332 12.2
2010-09-01 06:16:04 51°14.192 2°55.358 333.6 9.6 331 -999
2010-09-01 06:16:09 51°14.203 2°55.348 332.8 9.7 330 -999
2010-09-01 06:16:15 51°14.217 2°55.335 332.2 9.8 330 -999
2010-09-01 06:16:20 51°14.229 2°55.324 331.9 9.9 331 12.1
2010-09-01 06:16:25 51°14.241 2°55.312 331.7 10 329 12.2
2010-09-01 06:16:29 51°14.251 2°55.303 331 10 329 12.3
2010-09-01 06:16:34 51°14.263 2°55.293 331 10 331 12.3
2010-09-01 06:16:39 51°14.275 2°55.281 331.6 10.1 331 12.3
2010-09-01 06:16:44 51°14.287 2°55.27 331.7 10.1 330 12.2
2010-09-01 06:16:49 51°14.3 2°55.259 331.6 10.1 330 12.1
2010-09-01 06:16:53 51°14.309 2°55.25 331.8 10.1 330 -999
2010-09-01 06:16:58 51°14.321 2°55.238 331.3 10.1 328 12
2010-09-01 06:17:04 51°14.336 2°55.225 330.9 10.1 330 12
2010-09-01 06:17:09 51°14.348 2°55.214 331.8 10.1 331 12.1
2010-09-01 06:17:13 51°14.358 2°55.206 332.8 10.1 331 12
2010-09-01 06:17:18 51°14.37 2°55.194 332.3 10.2 329 12
2010-09-01 06:17:23 51°14.382 2°55.182 331.1 10.2 328 11.9
2010-09-01 06:17:28 51°14.394 2°55.17 330.5 10.4 328 12.2
2010-09-01 06:17:33 51°14.406 2°55.158 330.4 10.4 329 11.9
2010-09-01 06:17:37 51°14.416 2°55.148 331.1 10.5 329 12.1
2010-09-01 06:17:42 51°14.429 2°55.135 330.7 10.7 328 12.2
2010-09-01 06:17:48 51°14.444 2°55.119 329.4 10.8 326 12.5
2010-09-01 06:17:53 51°14.457 2°55.107 329.5 11 328 12.3
2010-09-01 06:17:57 51°14.468 2°55.096 330.1 11.2 328 12.3
2010-09-01 06:18:02 51°14.481 2°55.082 329.6 11.4 327 12.4
2010-09-01 06:18:07 51°14.494 2°55.067 328.4 11.6 325 12.5
2010-09-01 06:18:12 51°14.508 2°55.052 328.1 11.8 326 12.6
2010-09-01 06:18:17 51°14.522 2°55.038 328.1 12 326 12.6
2010-09-01 06:18:22 51°14.535 2°55.022 328.1 12.1 326 12.9
2010-09-01 06:18:27 51°14.55 2°55.009 328.9 12.2 329 12.9
2010-09-01 06:18:32 51°14.565 2°54.994 329.6 12.3 328 12.8
2010-09-01 06:18:37 51°14.579 2°54.98 329.6 12.4 329 12.9
2010-09-01 06:18:42 51°14.594 2°54.965 329.4 12.5 328 12.6
2010-09-01 06:18:47 51°14.609 2°54.951 329.4 12.7 329 12.8
2010-09-01 06:18:52 51°14.624 2°54.936 329.2 12.8 328 12.9
2010-09-01 06:18:57 51°14.64 2°54.921 328.6 12.9 328 12.8
2010-09-01 06:19:02 51°14.654 2°54.905 327.3 12.9 326 12.9
2010-09-01 06:19:07 51°14.669 2°54.888 325.9 13 325 12.6
2010-09-01 06:19:12 51°14.685 2°54.873 325.8 13.1 328 12.6
2010-09-01 06:19:17 51°14.7 2°54.857 326.2 13.1 326 12.7
2010-09-01 06:19:22 51°14.715 2°54.841 326.7 13 327 12.8
2010-09-01 06:19:28 51°14.733 2°54.822 326.5 13 326 12.8
2010-09-01 06:19:33 51°14.748 2°54.805 325.5 13.1 325 12.8
2010-09-01 06:19:37 51°14.76 2°54.793 325.6 13 326 12.6
2010-09-01 06:19:42 51°14.775 2°54.777 326.2 13 328 -999
2010-09-01 06:19:48 51°14.793 2°54.758 325.8 13.1 326 12.8
2010-09-01 06:19:53 51°14.808 2°54.742 324.9 13 327 -999
2010-09-01 06:19:59 51°14.826 2°54.723 324.2 12.9 325 -999
2010-09-01 06:20:05 51°14.844 2°54.704 324.4 13 327 -999
2010-09-01 06:20:10 51°14.858 2°54.687 324.4 12.9 324 5.5
2010-09-01 06:20:16 51°14.876 2°54.668 323.4 12.9 325 -999
2010-09-01 06:20:21 51°14.89 2°54.651 323 13 324 -999
2010-09-01 06:20:26 51°14.905 2°54.634 322.3 12.9 324 -999
2010-09-01 06:20:31 51°14.919 2°54.617 321.9 13 323 -999
2010-09-01 06:20:36 51°14.934 2°54.599 321.5 12.9 323 -999
2010-09-01 06:20:41 51°14.948 2°54.582 321.2 12.9 323 -999
2010-09-01 06:20:45 51°14.959 2°54.569 321.2 12.8 323 12.2
2010-09-01 06:20:50 51°14.973 2°54.551 321 12.9 322 11.3
2010-09-01 06:20:55 51°14.988 2°54.534 320.9 12.9 324 11.5
2010-09-01 06:21:00 51°15.002 2°54.517 321.1 13 323 11.5
2010-09-01 06:21:05 51°15.017 2°54.5 321 13 324 11.5
2010-09-01 06:21:10 51°15.032 2°54.485 321.9 13.1 327 11.9
2010-09-01 06:21:14 51°15.044 2°54.471 322.9 13 325 11.7
2010-09-01 06:21:20 51°15.062 2°54.453 323.2 13.1 328 11.5
2010-09-01 06:21:25 51°15.077 2°54.436 323.8 13.1 326 11.5
2010-09-01 06:21:29 51°15.089 2°54.422 323.6 13.1 325 11.6
2010-09-01 06:21:34 51°15.104 2°54.405 322.9 13.1 324 11.5
2010-09-01 06:21:39 51°15.118 2°54.387 322.4 13.1 322 11.4
2010-09-01 06:21:44 51°15.132 2°54.369 321.2 13.1 322 11.5
2010-09-01 06:21:49 51°15.146 2°54.352 321.2 13.1 323 11.5
2010-09-01 06:21:53 51°15.158 2°54.338 321.3 13.1 322 11.8
2010-09-01 06:21:58 51°15.172 2°54.32 321.6 13.1 322 11.8
2010-09-01 06:22:03 51°15.186 2°54.302 321.9 13.1 322 11.7
2010-09-01 06:22:08 51°15.201 2°54.285 322.1 13.1 323 11.6
2010-09-01 06:22:13 51°15.215 2°54.267 322.1 13.1 322 11.8
2010-09-01 06:22:17 51°15.227 2°54.253 322 13.1 322 11.8
2010-09-01 06:22:22 51°15.241 2°54.235 322 13.1 323 11.8
2010-09-01 06:22:27 51°15.256 2°54.218 322 13.2 323 12
2010-09-01 06:22:32 51°15.271 2°54.2 322 13.2 323 12
2010-09-01 06:22:37 51°15.285 2°54.183 322 13.1 323 11.9
2010-09-01 06:22:42 51°15.3 2°54.165 322 13.1 323 11.9
2010-09-01 06:22:47 51°15.314 2°54.147 322.1 13.1 322 11.9
2010-09-01 06:22:52 51°15.328 2°54.129 322.1 13.1 323 12.1
2010-09-01 06:22:57 51°15.343 2°54.112 322.2 13.2 323 11.8
2010-09-01 06:23:02 51°15.358 2°54.095 322.2 13.2 322 11.8
2010-09-01 06:23:07 51°15.372 2°54.077 322 13.1 322 11.8
2010-09-01 06:23:12 51°15.387 2°54.059 321.6 13.2 323 12
2010-09-01 06:23:17 51°15.401 2°54.042 321.6 13.2 323 12
2010-09-01 06:23:22 51°15.416 2°54.024 321.3 13.2 322 12.2
2010-09-01 06:23:27 51°15.43 2°54.006 321.2 13.2 323 12.3
2010-09-01 06:23:32 51°15.445 2°53.988 321.3 13.2 322 12.1
2010-09-01 06:23:37 51°15.459 2°53.97 321.3 13.2 322 11.9
2010-09-01 06:23:42 51°15.474 2°53.953 321.3 13.1 322 12.4
2010-09-01 06:23:47 51°15.489 2°53.936 321.2 13.2 323 12.5
2010-09-01 06:23:52 51°15.503 2°53.918 321.1 13.2 323 12.5
2010-09-01 06:23:57 51°15.517 2°53.9 320.9 13.2 322 12.5
2010-09-01 06:24:02 51°15.532 2°53.882 321 13.2 323 12.5
2010-09-01 06:24:07 51°15.546 2°53.865 321.1 13.1 322 12.6
2010-09-01 06:24:12 51°15.561 2°53.847 320.8 13.1 322 12.8
2010-09-01 06:24:17 51°15.576 2°53.829 320.8 13.2 323 12.8
2010-09-01 06:24:22 51°15.59 2°53.812 320.9 13.1 323 12.8
2010-09-01 06:24:28 51°15.608 2°53.791 320.9 13.2 323 12.7
2010-09-01 06:24:32 51°15.619 2°53.777 320.9 13.1 323 12.8
2010-09-01 06:24:37 51°15.634 2°53.76 320.9 13.1 324 12.8
2010-09-01 06:24:42 51°15.648 2°53.742 321 13.1 323 12.8
2010-09-01 06:24:47 51°15.663 2°53.725 321 13.1 324 12.8
2010-09-01 06:24:52 51°15.678 2°53.708 321.1 13.1 324 12.8
2010-09-01 06:24:57 51°15.692 2°53.691 321.2 13.1 324 12.8
2010-09-01 06:25:02 51°15.707 2°53.674 321.1 13.1 323 12.8
2010-09-01 06:25:07 51°15.722 2°53.657 320.9 13.1 324 12.6
2010-09-01 06:25:12 51°15.736 2°53.64 320.7 13 324 12.9
2010-09-01 06:25:17 51°15.75 2°53.622 320.7 13 323 12.9
2010-09-01 06:25:21 51°15.762 2°53.609 320.9 12.9 324 13.1
2010-09-01 06:25:27 51°15.779 2°53.588 321.1 13 323 13.2
2010-09-01 06:25:32 51°15.793 2°53.571 320.9 12.9 323 12.7
2010-09-01 06:25:37 51°15.808 2°53.554 321 12.9 323 13
2010-09-01 06:25:42 51°15.822 2°53.537 320.9 12.9 323 13.1
2010-09-01 06:25:47 51°15.837 2°53.52 320.9 12.9 324 13.3
2010-09-01 06:25:52 51°15.851 2°53.503 320.9 12.9 323 13.4
2010-09-01 06:25:57 51°15.865 2°53.486 320.9 12.9 323 12.9
2010-09-01 06:26:02 51°15.88 2°53.469 320.8 13 323 13
2010-09-01 06:26:07 51°15.894 2°53.452 321 13 324 13.2
2010-09-01 06:26:12 51°15.909 2°53.434 321 12.9 323 13
2010-09-01 06:26:17 51°15.923 2°53.418 320.9 12.9 323 13.1
2010-09-01 06:26:22 51°15.938 2°53.401 321.1 13 324 12.8
2010-09-01 06:26:28 51°15.955 2°53.38 321.2 13 323 13.1
2010-09-01 06:26:32 51°15.967 2°53.367 321.3 13 324 13
2010-09-01 06:26:37 51°15.982 2°53.35 321.4 13 325 13.4
2010-09-01 06:26:42 51°15.996 2°53.333 321.3 13 324 13
2010-09-01 06:26:47 51°16.011 2°53.317 322.5 13 327 13.1
2010-09-01 06:26:52 51°16.026 2°53.301 323.4 13 326 13.2
2010-09-01 06:26:57 51°16.041 2°53.285 324.1 13.1 327 13.2
2010-09-01 06:27:02 51°16.057 2°53.27 325 13.1 328 13.5
2010-09-01 06:27:07 51°16.072 2°53.254 325.3 13.1 327 13.4
2010-09-01 06:27:12 51°16.088 2°53.239 326 13.2 329 13.4
2010-09-01 06:27:17 51°16.103 2°53.223 326.2 13.1 327 13.3
2010-09-01 06:27:22 51°16.119 2°53.21 327.7 13.1 332 13.3
2010-09-01 06:27:32 51°16.151 2°53.182 329.2 13.2 334 13.3
2010-09-01 06:27:37 51°16.167 2°53.168 329.6 13.2 332 13.3
2010-09-01 06:27:47 51°16.199 2°53.141 330 13.2 332 12.9
2010-09-01 06:27:52 51°16.215 2°53.127 329.8 13.1 332 13.1
2010-09-01 06:27:52 51°16.215 2°53.127 329.8 13.1 332 13.1
2010-09-01 06:28:06 51°16.26 2°53.09 329.9 13.2 333 13.6
2010-09-01 06:28:06 51°16.26 2°53.09 329.9 13.2 333 13.6
2010-09-01 06:28:16 51°16.293 2°53.063 329.9 13.1 333 13.1
2010-09-01 06:28:21 51°16.309 2°53.05 329.7 13.1 332 13.6
2010-09-01 06:28:35 51°16.354 2°53.012 329.6 13.1 332 13.2
2010-09-01 06:28:40 51°16.371 2°52.999 329.6 13.3 333 13.4
2010-09-01 06:28:53 51°16.412 2°52.963 329.1 13.1 332 13.4
2010-09-01 06:29:04 51°16.447 2°52.932 329.3 13.1 332 13.2
2010-09-01 06:29:05 51°16.45 2°52.93 329.3 13.1 332 13.2
2010-09-01 06:29:24 51°16.512 2°52.878 329.6 13.2 332 13.6
2010-09-01 06:29:29 51°16.528 2°52.865 329.6 13.2 332 13.2
2010-09-01 06:29:54 51°16.609 2°52.797 329.5 13.1 332 13
2010-09-01 06:30:08 51°16.654 2°52.76 329.3 13.1 332 12.7
2010-09-01 06:30:13 51°16.67 2°52.746 329.2 13.1 333 12.5
2010-09-01 06:30:23 51°16.702 2°52.72 329.6 13.1 333 12.5
2010-09-01 06:30:41 51°16.761 2°52.672 329.3 13.2 333 11.3
2010-09-01 06:31:04 51°16.836 2°52.611 329.6 13.2 332 11.4
2010-09-01 06:32:19 51°17.079 2°52.411 329.3 13.3 333 11.4
2010-09-01 06:32:19 51°17.079 2°52.411 329.5 13.3 333 11.4
2010-09-01 06:32:29 51°17.112 2°52.385 329.9 13.2 334 11.8
2010-09-01 06:33:00 51°17.212 2°52.302 329.1 13 333 11.9
2010-09-01 06:33:13 51°17.255 2°52.268 329.5 13.2 333 12
2010-09-01 06:33:32 51°17.316 2°52.216 329.1 13.4 332 13
2010-09-01 06:33:37 51°17.333 2°52.203 329.2 13.4 333 12.7
2010-09-01 06:33:42 51°17.349 2°52.19 329.7 13.3 334 12.6
2010-09-01 06:33:42 51°17.349 2°52.19 329.7 13.3 334 12.6
2010-09-01 06:34:00 51°17.409 2°52.143 329.9 13.5 334 12.7
2010-09-01 06:34:04 51°17.422 2°52.132 329.9 13.3 333 12.7
2010-09-01 06:34:04 51°17.422 2°52.132 329.9 13.3 333 12.7
2010-09-01 06:34:39 51°17.537 2°52.037 328.9 13.4 332 12.6
2010-09-01 06:34:54 51°17.584 2°51.99 324.6 13.2 327 12.1
2010-09-01 06:35:41 51°17.723 2°51.832 320.4 13.2 324 11.7
2010-09-01 06:35:45 51°17.735 2°51.819 320.5 13.1 324 11.5
2010-09-01 06:35:51 51°17.751 2°51.796 318.7 13 318 11.7
2010-09-01 06:35:56 51°17.765 2°51.777 317.1 13 320 12.1
2010-09-01 06:36:01 51°17.779 2°51.758 315.8 13 319 11.6
2010-09-01 06:36:06 51°17.792 2°51.739 314.4 12.9 317 11.1
2010-09-01 06:36:11 51°17.805 2°51.72 314 12.7 318 11.2
2010-09-01 06:36:16 51°17.817 2°51.7 313 12.8 315 11.7
2010-09-01 06:36:21 51°17.83 2°51.68 312.6 12.9 316 11.9
2010-09-01 06:36:25 51°17.84 2°51.664 312.5 12.9 315 11.8
2010-09-01 06:36:31 51°17.856 2°51.64 312.5 13 316 11.5
2010-09-01 06:36:36 51°17.869 2°51.62 311.9 13 315 11.7
2010-09-01 06:36:41 51°17.882 2°51.6 312 13 316 11.6
2010-09-01 06:36:46 51°17.895 2°51.58 312.1 12.9 316 11.7
2010-09-01 06:36:51 51°17.907 2°51.56 312.1 12.9 316 12
2010-09-01 06:36:57 51°17.922 2°51.535 311.9 13 314 12.1
2010-09-01 06:37:01 51°17.933 2°51.519 311.5 13 315 12
2010-09-01 06:37:06 51°17.945 2°51.498 311.5 12.9 314 11.9
2010-09-01 06:37:11 51°17.958 2°51.478 311.5 12.9 315 12.3
2010-09-01 06:37:16 51°17.97 2°51.458 312.3 13 316 12.4
2010-09-01 06:37:21 51°17.983 2°51.437 312.5 13 315 12.2
2010-09-01 06:37:26 51°17.996 2°51.417 312.5 13 316 12.2
2010-09-01 06:37:31 51°18.009 2°51.397 312.7 13.1 316 12.5
2010-09-01 06:37:36 51°18.022 2°51.376 312.7 13 314 12.2
2010-09-01 06:37:41 51°18.034 2°51.356 312 13 313 12.3
2010-09-01 06:37:45 51°18.044 2°51.339 311.6 12.9 314 12.9
2010-09-01 06:37:51 51°18.059 2°51.314 311.9 13 314 12.9
2010-09-01 06:37:56 51°18.071 2°51.294 312.5 12.9 314 12.7
2010-09-01 06:38:01 51°18.084 2°51.273 312.9 12.9 315 13.2
2010-09-01 06:38:06 51°18.096 2°51.253 313 12.9 314 13.6
2010-09-01 06:38:11 51°18.109 2°51.232 312.6 12.9 314 13.2
2010-09-01 06:38:16 51°18.122 2°51.212 312.7 12.9 315 13.4
2010-09-01 06:38:21 51°18.134 2°51.191 312.9 13 314 13.3
2010-09-01 06:38:25 51°18.144 2°51.175 312.9 12.8 315 13.9
2010-09-01 06:38:31 51°18.159 2°51.15 313 12.9 314 14
2010-09-01 06:38:36 51°18.172 2°51.13 312.9 13 314 14.1
2010-09-01 06:38:41 51°18.184 2°51.11 313.4 13 316 14.1
2010-09-01 06:38:46 51°18.197 2°51.089 313.1 13.1 313 13.8
2010-09-01 06:38:51 51°18.21 2°51.068 313.1 13.1 315 13.8
2010-09-01 06:38:56 51°18.222 2°51.048 313.3 13 314 13.9
2010-09-01 06:39:01 51°18.235 2°51.028 313.1 13.1 315 14.3
2010-09-01 06:39:05 51°18.245 2°51.011 313.2 13.1 314 14.6
2010-09-01 06:39:11 51°18.261 2°50.987 313.2 13.1 315 14.7
2010-09-01 06:39:16 51°18.273 2°50.966 313.3 13.1 314 14.5
2010-09-01 06:39:21 51°18.286 2°50.946 313.7 13 315 14.6
2010-09-01 06:39:26 51°18.299 2°50.925 313 13.1 314 14.5
2010-09-01 06:39:31 51°18.311 2°50.905 312.9 13.1 315 14.8
2010-09-01 06:39:36 51°18.324 2°50.884 312.6 13.1 314 14.7
2010-09-01 06:39:41 51°18.337 2°50.864 312.8 13.1 315 14.8
2010-09-01 06:39:45 51°18.347 2°50.847 312.9 13 314 14.9
2010-09-01 06:39:51 51°18.362 2°50.822 312.9 13 314 15.3
2010-09-01 06:39:56 51°18.374 2°50.801 312.9 13 314 14.7
2010-09-01 06:40:01 51°18.387 2°50.781 312.9 13 315 15
2010-09-01 06:40:06 51°18.399 2°50.76 312.8 13 314 15.2
2010-09-01 06:40:11 51°18.412 2°50.739 312.7 13.1 314 15.1
2010-09-01 06:40:16 51°18.425 2°50.718 312.9 13.1 314 15.2
2010-09-01 06:40:21 51°18.438 2°50.698 313.1 13.2 315 15.2
2010-09-01 06:40:25 51°18.448 2°50.681 312.9 13.1 314 15.4
2010-09-01 06:40:31 51°18.463 2°50.656 313 13.2 314 15.7
2010-09-01 06:40:36 51°18.476 2°50.636 313 13.2 314 15.5
2010-09-01 06:40:41 51°18.489 2°50.615 313.2 13.1 315 15.4
2010-09-01 06:40:46 51°18.501 2°50.594 313.3 13.1 315 15.6
2010-09-01 06:40:51 51°18.514 2°50.573 312.7 13.1 313 15.7
2010-09-01 06:40:57 51°18.53 2°50.549 313.2 13.2 316 15.9
2010-09-01 06:41:01 51°18.54 2°50.531 313.2 13.2 313 15.5
2010-09-01 06:41:06 51°18.552 2°50.511 313.2 13.2 315 15.6
2010-09-01 06:41:11 51°18.565 2°50.49 312.9 13.2 313 15.6
2010-09-01 06:41:16 51°18.578 2°50.469 313.1 13.2 315 15.8
2010-09-01 06:41:21 51°18.591 2°50.448 313 13.2 314 15.7
2010-09-01 06:41:26 51°18.603 2°50.427 312.9 13.1 314 15.7
2010-09-01 06:41:31 51°18.616 2°50.407 312.6 13.1 314 15.6
2010-09-01 06:41:36 51°18.628 2°50.386 312.8 13.1 313 15.9
2010-09-01 06:41:41 51°18.641 2°50.366 313.3 13 315 16.1
2010-09-01 06:41:46 51°18.654 2°50.344 312.9 13.1 313 15.6
2010-09-01 06:41:51 51°18.666 2°50.324 312.6 12.9 315 15.5
2010-09-01 06:41:56 51°18.679 2°50.304 312.9 13 314 15.8
2010-09-01 06:42:01 51°18.691 2°50.283 312.9 13 314 15.9
2010-09-01 06:42:05 51°18.701 2°50.266 312.8 13 315 15.3
2010-09-01 06:42:11 51°18.717 2°50.242 313.1 13 315 15.3
2010-09-01 06:42:16 51°18.729 2°50.221 312.7 12.9 313 15.2
2010-09-01 06:42:21 51°18.742 2°50.201 313 13 316 15.3
2010-09-01 06:42:26 51°18.754 2°50.18 313.1 13 314 14.9
2010-09-01 06:42:31 51°18.767 2°50.16 313.3 12.9 316 14.6
2010-09-01 06:42:37 51°18.782 2°50.136 313.5 12.9 314 15
2010-09-01 06:42:41 51°18.792 2°50.119 312.9 12.9 314 14.6
2010-09-01 06:42:45 51°18.802 2°50.103 313.2 13 315 14.3
2010-09-01 06:42:51 51°18.817 2°50.078 313.2 13 314 14.3
2010-09-01 06:42:56 51°18.83 2°50.058 313.3 13 315 14.3
2010-09-01 06:43:01 51°18.843 2°50.037 313.6 13 314 14.2
2010-09-01 06:43:06 51°18.855 2°50.017 313.3 12.9 314 14.2
2010-09-01 06:43:11 51°18.868 2°49.997 313.3 12.9 315 14.1
2010-09-01 06:43:16 51°18.88 2°49.977 313.5 12.9 315 14.2
2010-09-01 06:43:21 51°18.893 2°49.956 313.5 12.9 315 13.7
2010-09-01 06:43:25 51°18.903 2°49.94 313.3 12.8 315 12.7
2010-09-01 06:43:31 51°18.918 2°49.916 313 12.7 315 13.2
2010-09-01 06:43:36 51°18.93 2°49.896 312.9 12.7 315 13.5
2010-09-01 06:43:41 51°18.943 2°49.875 313.3 12.8 315 13.2
2010-09-01 06:43:46 51°18.955 2°49.855 313.4 12.9 315 12.6
2010-09-01 06:43:51 51°18.968 2°49.836 313.3 12.8 315 12.7
2010-09-01 06:43:57 51°18.983 2°49.811 313.3 12.8 314 12.8
2010-09-01 06:44:01 51°18.993 2°49.795 313.7 12.8 316 12.4
2010-09-01 06:44:06 51°19.005 2°49.775 313 12.8 314 12.4
2010-09-01 06:44:11 51°19.018 2°49.755 313 12.8 316 12.4
2010-09-01 06:44:16 51°19.03 2°49.735 313 12.8 314 12.1
2010-09-01 06:44:21 51°19.043 2°49.715 312.9 12.8 316 12.2
2010-09-01 06:44:26 51°19.056 2°49.695 313 12.9 315 11.9
2010-09-01 06:44:31 51°19.068 2°49.674 313 12.9 314 12.2
2010-09-01 06:44:36 51°19.081 2°49.655 313.2 12.9 316 12.6
2010-09-01 06:44:41 51°19.094 2°49.635 313.2 12.9 315 12.8
2010-09-01 06:44:45 51°19.104 2°49.618 313.2 12.9 315 13.1
2010-09-01 06:44:51 51°19.119 2°49.594 313.5 13 316 13.2
2010-09-01 06:44:56 51°19.132 2°49.574 313.3 13 314 13.4
2010-09-01 06:45:01 51°19.145 2°49.554 313.5 12.9 316 13.5
2010-09-01 06:45:06 51°19.157 2°49.533 313 12.9 314 13.7
2010-09-01 06:45:11 51°19.17 2°49.513 313.1 13 315 14.2
2010-09-01 06:45:16 51°19.183 2°49.493 313.4 13 315 13.8
2010-09-01 06:45:21 51°19.195 2°49.473 313.2 12.8 315 13.9
2010-09-01 06:45:25 51°19.205 2°49.457 313.3 12.9 315 14.3
2010-09-01 06:45:31 51°19.221 2°49.434 313 12.9 316 14.6
2010-09-01 06:45:36 51°19.234 2°49.413 313.4 13 315 14.8
2010-09-01 06:45:41 51°19.247 2°49.393 313.6 13 316 14.5
2010-09-01 06:45:46 51°19.259 2°49.373 313.2 12.9 314 14.7
2010-09-01 06:45:51 51°19.272 2°49.353 313 12.9 316 14.9
2010-09-01 06:45:56 51°19.285 2°49.333 313.2 12.9 316 14.9
2010-09-01 06:46:01 51°19.297 2°49.312 313 13 314 15.2
2010-09-01 06:46:05 51°19.308 2°49.296 313.3 13 316 15
2010-09-01 06:46:11 51°19.323 2°49.271 313.5 12.9 314 15.4
2010-09-01 06:46:16 51°19.335 2°49.251 312.8 12.9 315 15.5
2010-09-01 06:46:21 51°19.348 2°49.231 312.9 12.9 315 15.1
2010-09-01 06:46:26 51°19.36 2°49.211 312.9 12.9 315 15
2010-09-01 06:46:31 51°19.373 2°49.19 313 13 315 15.4
2010-09-01 06:46:36 51°19.386 2°49.17 313.3 12.9 314 15.5
2010-09-01 06:46:41 51°19.398 2°49.149 313.1 12.9 314 15.5
2010-09-01 06:46:45 51°19.408 2°49.133 312.8 13 313 15.9
2010-09-01 06:46:51 51°19.423 2°49.108 312.6 13 314 16.1
2010-09-01 06:46:56 51°19.436 2°49.088 313 12.9 315 16.5
2010-09-01 06:47:01 51°19.449 2°49.067 313.1 13 314 17.2
2010-09-01 06:47:06 51°19.461 2°49.047 313.2 13 315 17.6
2010-09-01 06:47:11 51°19.474 2°49.026 313.4 13 314 17.7
2010-09-01 06:47:16 51°19.487 2°49.006 313.6 13 315 18.2
2010-09-01 06:47:21 51°19.499 2°48.985 313.5 12.8 313 18.4
2010-09-01 06:47:25 51°19.509 2°48.969 313.7 13 316 18
2010-09-01 06:47:31 51°19.525 2°48.945 313.5 13 314 18.4
2010-09-01 06:47:36 51°19.538 2°48.924 313.4 13 315 18.6
2010-09-01 06:47:41 51°19.551 2°48.905 313.6 13 317 18.3
2010-09-01 06:47:46 51°19.563 2°48.884 313.6 12.9 315 18.6
2010-09-01 06:47:51 51°19.576 2°48.864 313.8 13 316 19.1
2010-09-01 06:47:56 51°19.589 2°48.845 314.2 12.9 317 19.3
2010-09-01 06:48:01 51°19.602 2°48.824 313.8 12.9 316 19.4
2010-09-01 06:48:05 51°19.612 2°48.808 313.4 13 317 19.6
2010-09-01 06:48:11 51°19.628 2°48.784 314 13 316 19.7
2010-09-01 06:48:16 51°19.641 2°48.764 313.6 13.1 315 20.2
2010-09-01 06:48:21 51°19.654 2°48.744 313.9 13.1 316 20
2010-09-01 06:48:26 51°19.667 2°48.724 313.5 13 317 20.3
2010-09-01 06:48:31 51°19.68 2°48.705 313.6 13 317 20.4
2010-09-01 06:48:36 51°19.693 2°48.684 313.5 13 316 20.7
2010-09-01 06:48:41 51°19.706 2°48.665 313.5 13.1 317 20.7
2010-09-01 06:48:45 51°19.716 2°48.648 313.1 13 316 21.3
2010-09-01 06:48:51 51°19.733 2°48.625 313.3 13 318 21.4
2010-09-01 06:48:56 51°19.746 2°48.605 313.6 13 316 21.9
2010-09-01 06:49:01 51°19.759 2°48.585 313.2 13 316 21.9
2010-09-01 06:49:06 51°19.772 2°48.564 312.5 13.1 315 21.8
2010-09-01 06:49:11 51°19.784 2°48.543 311 12.9 313 21.8
2010-09-01 06:49:17 51°19.799 2°48.519 310.6 12.8 314 22.7
2010-09-01 06:49:21 51°19.808 2°48.502 310.1 12.9 313 22.7
2010-09-01 06:49:26 51°19.821 2°48.481 309.4 12.9 313 22.7
2010-09-01 06:49:31 51°19.833 2°48.46 309.6 12.9 313 22.8
2010-09-01 06:49:37 51°19.848 2°48.434 309.3 13 312 23.2
2010-09-01 06:49:41 51°19.857 2°48.417 309.3 13 313 22.8
2010-09-01 06:49:46 51°19.869 2°48.396 308.7 13 311 23.1
2010-09-01 06:49:51 51°19.881 2°48.374 308.7 13 312 23.3
2010-09-01 06:49:56 51°19.894 2°48.353 308.7 13 312 23.4
2010-09-01 06:50:01 51°19.906 2°48.332 308.6 12.9 312 23.3
2010-09-01 06:50:05 51°19.916 2°48.315 309 13 313 23.5
2010-09-01 06:50:11 51°19.93 2°48.289 308.6 13 312 23.3
2010-09-01 06:50:16 51°19.942 2°48.267 308.5 13 312 23.4
2010-09-01 06:50:21 51°19.954 2°48.246 308.9 13.1 312 23.3
2010-09-01 06:50:26 51°19.966 2°48.225 309 13 312 23.3
2010-09-01 06:50:31 51°19.979 2°48.203 309.1 13 312 23.3
2010-09-01 06:50:36 51°19.99 2°48.181 308.6 13 311 23.1
2010-09-01 06:50:41 51°20.003 2°48.161 308.7 13 313 22.9
2010-09-01 06:50:45 51°20.012 2°48.143 308.6 13 312 23.3
2010-09-01 06:50:51 51°20.027 2°48.118 308.6 12.9 312 23.4
2010-09-01 06:50:56 51°20.039 2°48.096 309.1 13 312 23.6
2010-09-01 06:51:01 51°20.051 2°48.075 309.2 13.1 312 23.5
2010-09-01 06:51:06 51°20.062 2°48.053 308.8 13.1 311 23.6
2010-09-01 06:51:11 51°20.074 2°48.032 308.8 13 311 23.6
2010-09-01 06:51:17 51°20.088 2°48.005 308.6 13 310 23
2010-09-01 06:51:21 51°20.097 2°47.987 308.3 12.9 309 22.9
2010-09-01 06:51:25 51°20.106 2°47.97 308.2 12.9 311 22.9
2010-09-01 06:51:31 51°20.12 2°47.944 308.7 12.9 310 23
2010-09-01 06:51:36 51°20.131 2°47.922 308.9 12.9 310 22.8
2010-09-01 06:51:41 51°20.143 2°47.901 309.3 12.9 312 22.8
2010-09-01 06:51:46 51°20.154 2°47.879 308.6 12.7 310 22.9
2010-09-01 06:51:51 51°20.166 2°47.858 308.8 12.8 313 23.1
2010-09-01 06:51:56 51°20.178 2°47.837 309.3 12.8 311 22.6
2010-09-01 06:52:01 51°20.19 2°47.816 309.4 12.8 312 22.7
2010-09-01 06:52:05 51°20.199 2°47.799 309.8 12.9 312 22.5
2010-09-01 06:52:11 51°20.213 2°47.773 309.8 12.8 311 22
2010-09-01 06:52:16 51°20.225 2°47.753 309.5 12.7 313 22
2010-09-01 06:52:21 51°20.237 2°47.732 309.5 12.8 311 22.1
2010-09-01 06:52:26 51°20.248 2°47.711 309.4 12.6 312 22.1
2010-09-01 06:52:31 51°20.26 2°47.69 309.4 12.7 312 22.2
2010-09-01 06:52:36 51°20.272 2°47.669 309.3 12.8 311 22.1
2010-09-01 06:52:41 51°20.283 2°47.648 309.3 12.7 312 22
2010-09-01 06:52:45 51°20.293 2°47.631 309.5 12.7 312 21.4
2010-09-01 06:52:51 51°20.307 2°47.606 309.4 12.7 312 21.2
2010-09-01 06:52:56 51°20.319 2°47.585 309.3 12.7 312 21.2
2010-09-01 06:53:01 51°20.33 2°47.564 309.4 12.8 312 21
2010-09-01 06:53:06 51°20.342 2°47.543 309.4 12.8 312 21
2010-09-01 06:53:11 51°20.354 2°47.521 309.3 12.7 311 20.2
2010-09-01 06:53:17 51°20.368 2°47.496 309.5 12.7 313 20.6
2010-09-01 06:53:21 51°20.377 2°47.48 309.6 12.7 311 19.9
2010-09-01 06:53:25 51°20.386 2°47.463 308.8 12.6 311 20.1
2010-09-01 06:53:31 51°20.4 2°47.438 309.3 12.6 312 20.1
2010-09-01 06:53:36 51°20.412 2°47.417 309.2 12.7 311 19.6
2010-09-01 06:53:41 51°20.423 2°47.396 309.2 12.7 312 19.4
2010-09-01 06:53:46 51°20.435 2°47.375 309.1 12.6 311 19.9
2010-09-01 06:53:51 51°20.446 2°47.354 309.3 12.7 312 19.3
2010-09-01 06:53:57 51°20.46 2°47.329 309.3 12.7 312 18
2010-09-01 06:54:01 51°20.47 2°47.313 309.4 12.7 312 18.7
2010-09-01 06:54:05 51°20.479 2°47.296 309.3 12.6 312 19.5
2010-09-01 06:54:11 51°20.493 2°47.271 309.3 12.6 312 19.4
2010-09-01 06:54:16 51°20.505 2°47.25 309.3 12.7 312 19.2
2010-09-01 06:54:21 51°20.516 2°47.228 309.1 12.6 311 18.3
2010-09-01 06:54:26 51°20.528 2°47.207 309.1 12.7 312 18.1
2010-09-01 06:54:31 51°20.539 2°47.186 309.2 12.7 312 17.9
2010-09-01 06:54:37 51°20.553 2°47.161 309.2 12.7 311 17.9
2010-09-01 06:54:41 51°20.563 2°47.144 309.2 12.7 312 18
2010-09-01 06:54:46 51°20.574 2°47.123 309.5 12.6 312 18.9
2010-09-01 06:54:51 51°20.586 2°47.102 309.3 12.7 312 19.5
2010-09-01 06:54:56 51°20.598 2°47.082 309.6 12.7 313 20.1
2010-09-01 06:55:01 51°20.61 2°47.06 309.4 12.7 311 18.2
2010-09-01 06:55:06 51°20.622 2°47.04 309.4 12.8 313 17.5
2010-09-01 06:55:11 51°20.633 2°47.019 309.3 12.6 312 18.3
2010-09-01 06:55:16 51°20.645 2°46.998 308.9 12.7 312 19.2
2010-09-01 06:55:21 51°20.657 2°46.977 309.3 12.6 312 20.4
2010-09-01 06:55:25 51°20.666 2°46.96 309.7 12.8 312 20.4
2010-09-01 06:55:31 51°20.68 2°46.935 309 12.8 311 20.1
2010-09-01 06:55:36 51°20.692 2°46.914 308.9 12.7 312 20.3
2010-09-01 06:55:41 51°20.704 2°46.893 309.1 12.7 313 20.2
2010-09-01 06:55:46 51°20.716 2°46.872 309 12.7 312 20.4
2010-09-01 06:55:51 51°20.728 2°46.852 309.5 12.7 314 20.8
2010-09-01 06:55:57 51°20.742 2°46.826 309.3 12.7 311 20.9
2010-09-01 06:56:01 51°20.752 2°46.81 309.4 12.8 314 21.1
2010-09-01 06:56:05 51°20.761 2°46.793 309.4 12.8 312 21.3
2010-09-01 06:56:11 51°20.776 2°46.768 309.4 12.9 313 21.5
2010-09-01 06:56:16 51°20.787 2°46.747 309.4 12.9 312 21.4
2010-09-01 06:56:21 51°20.799 2°46.726 309.3 12.8 312 21
2010-09-01 06:56:26 51°20.811 2°46.705 309.3 12.8 312 20.7
2010-09-01 06:56:31 51°20.823 2°46.684 309.3 12.8 313 21.2
2010-09-01 06:56:36 51°20.835 2°46.663 309.3 12.8 312 22
2010-09-01 06:56:41 51°20.847 2°46.642 309.3 12.7 313 22.7
2010-09-01 06:56:45 51°20.857 2°46.626 309.6 12.8 312 23.5
2010-09-01 06:56:51 51°20.871 2°46.601 309.5 12.8 313 23.3
2010-09-01 06:56:56 51°20.883 2°46.581 309.6 12.6 314 23.5
2010-09-01 06:57:01 51°20.895 2°46.559 309.2 12.7 312 24.2
2010-09-01 06:57:06 51°20.907 2°46.538 309 12.8 313 24
2010-09-01 06:57:11 51°20.919 2°46.517 309.1 12.7 312 22.3
2010-09-01 06:57:16 51°20.931 2°46.497 309.1 12.8 314 22
2010-09-01 06:57:21 51°20.942 2°46.475 309.2 12.7 312 22.8
2010-09-01 06:57:25 51°20.952 2°46.459 309.3 12.7 314 23.1
2010-09-01 06:57:31 51°20.966 2°46.434 309.2 12.8 312 23.3
2010-09-01 06:57:36 51°20.978 2°46.413 309.1 12.7 313 23.4
2010-09-01 06:57:41 51°20.99 2°46.392 309.3 12.8 313 24.1
2010-09-01 06:57:46 51°21.002 2°46.371 309.3 12.9 312 24.3
2010-09-01 06:57:51 51°21.014 2°46.35 309.5 12.9 313 25.1
2010-09-01 06:57:57 51°21.029 2°46.325 309.2 12.9 312 25.5
2010-09-01 06:58:01 51°21.038 2°46.308 309.3 12.8 313 25.5
2010-09-01 06:58:05 51°21.048 2°46.292 309 12.8 313 26
2010-09-01 06:58:11 51°21.062 2°46.267 309.3 12.8 312 25.9
2010-09-01 06:58:16 51°21.074 2°46.246 309 12.8 312 26.1
2010-09-01 06:58:21 51°21.086 2°46.225 309.3 12.9 314 25.8
2010-09-01 06:58:26 51°21.098 2°46.204 309.3 12.8 312 26
2010-09-01 06:58:31 51°21.111 2°46.184 309.3 12.9 314 25.7
2010-09-01 06:58:36 51°21.123 2°46.163 309.3 12.9 313 25.4
2010-09-01 06:58:41 51°21.135 2°46.142 309.2 13 313 25
2010-09-01 06:58:45 51°21.145 2°46.125 309.2 12.9 312 25.3
2010-09-01 06:58:51 51°21.159 2°46.099 309.3 12.9 313 26.1
2010-09-01 06:58:56 51°21.171 2°46.078 309.4 12.9 313 26.1
2010-09-01 06:59:01 51°21.183 2°46.058 309.3 13 313 26.2
2010-09-01 06:59:06 51°21.196 2°46.037 309.1 12.9 313 26.6
2010-09-01 06:59:11 51°21.208 2°46.016 309.1 12.9 313 26.5
2010-09-01 06:59:17 51°21.223 2°45.991 309.3 12.9 314 26.9
2010-09-01 06:59:21 51°21.233 2°45.974 309.6 12.9 314 26.7
2010-09-01 06:59:26 51°21.245 2°45.953 309.8 12.9 314 26.9
2010-09-01 06:59:31 51°21.257 2°45.932 309.3 13 312 26.9
2010-09-01 06:59:36 51°21.27 2°45.912 309.8 13 313 27.1
2010-09-01 06:59:41 51°21.281 2°45.89 309.2 12.9 312 26.9
2010-09-01 06:59:46 51°21.294 2°45.87 309.3 12.9 314 26.4
2010-09-01 06:59:51 51°21.306 2°45.848 309.3 13 312 26.9
2010-09-01 06:59:56 51°21.318 2°45.828 309.3 12.9 313 27.1
2010-09-01 07:00:01 51°21.33 2°45.806 309.1 12.8 313 26.9
2010-09-01 07:00:05 51°21.34 2°45.789 309 13 313 26.8
2010-09-01 07:00:11 51°21.355 2°45.764 309.1 13.1 313 26.8
2010-09-01 07:00:16 51°21.367 2°45.743 309 13.1 312 26.5
2010-09-01 07:00:21 51°21.38 2°45.722 309.1 13.1 314 26.4
2010-09-01 07:00:26 51°21.392 2°45.701 309.4 13 312 26.2
2010-09-01 07:00:31 51°21.405 2°45.68 309.3 13 313 26.5
2010-09-01 07:00:37 51°21.419 2°45.654 309.3 13.1 313 26.3
2010-09-01 07:00:41 51°21.429 2°45.637 309.3 13.1 312 26.2
2010-09-01 07:00:45 51°21.439 2°45.621 309.2 13.1 314 25.9
2010-09-01 07:00:51 51°21.454 2°45.596 309.4 13 313 26.1
2010-09-01 07:00:56 51°21.466 2°45.574 309.2 13 314 26.1
2010-09-01 07:01:01 51°21.478 2°45.553 309 13.1 313 25.9
2010-09-01 07:01:06 51°21.49 2°45.531 307.8 12.9 311 25.8
2010-09-01 07:01:11 51°21.502 2°45.51 307.6 13 312 25.8
2010-09-01 07:01:16 51°21.513 2°45.487 307 12.9 309 25.8
2010-09-01 07:01:21 51°21.525 2°45.465 306.4 13 310 25.4
2010-09-01 07:01:25 51°21.534 2°45.447 306.1 13 310 25.2
2010-09-01 07:01:31 51°21.548 2°45.421 305.9 13 310 24.7
2010-09-01 07:01:36 51°21.559 2°45.399 305.2 12.9 310 24.7
2010-09-01 07:01:41 51°21.571 2°45.377 306.2 13 311 24.7
2010-09-01 07:01:46 51°21.582 2°45.354 306 13 308 24.6
2010-09-01 07:01:51 51°21.594 2°45.332 305.7 13 310 24.5
2010-09-01 07:01:56 51°21.605 2°45.309 305.8 13.1 309 24.6
2010-09-01 07:02:01 51°21.617 2°45.287 306 13 309 24.3
2010-09-01 07:02:05 51°21.626 2°45.27 306.1 13.1 309 24.1
2010-09-01 07:02:11 51°21.64 2°45.243 306 13.1 310 23.7
2010-09-01 07:02:16 51°21.651 2°45.221 305.7 13.1 310 23.6
2010-09-01 07:02:21 51°21.663 2°45.199 306 13.1 310 23.7
2010-09-01 07:02:26 51°21.675 2°45.177 305.8 13 310 23.6
2010-09-01 07:02:31 51°21.686 2°45.154 305.8 13.1 309 24
2010-09-01 07:02:37 51°21.7 2°45.127 306 13.1 310 23.5
2010-09-01 07:02:41 51°21.709 2°45.109 305.5 13.2 308 23.6
2010-09-01 07:02:45 51°21.718 2°45.091 305.7 13 310 23.7
2010-09-01 07:02:51 51°21.732 2°45.064 305.7 13 309 23.4
2010-09-01 07:02:57 51°21.746 2°45.038 305.9 13 310 23.5
2010-09-01 07:03:01 51°21.755 2°45.02 306 13 310 23.8
2010-09-01 07:03:06 51°21.766 2°44.997 305.6 13 309 23.4
2010-09-01 07:03:11 51°21.778 2°44.975 305.9 13 310 23.4
2010-09-01 07:03:16 51°21.789 2°44.952 306 13 308 23.1
2010-09-01 07:03:21 51°21.8 2°44.93 305.5 12.9 309 23
2010-09-01 07:03:25 51°21.809 2°44.912 305.4 12.8 308 22.9
2010-09-01 07:03:31 51°21.822 2°44.885 305.5 12.9 308 22.8
2010-09-01 07:03:36 51°21.833 2°44.863 305.9 12.8 309 22.8
2010-09-01 07:03:41 51°21.844 2°44.841 305.8 12.8 309 23
2010-09-01 07:03:46 51°21.855 2°44.818 306 12.8 309 23.1
2010-09-01 07:03:51 51°21.866 2°44.796 306 12.8 308 23.2
2010-09-01 07:03:56 51°21.877 2°44.775 306.4 12.7 309 22.7
2010-09-01 07:04:01 51°21.888 2°44.752 306.2 12.7 308 22.7
2010-09-01 07:04:05 51°21.897 2°44.735 306.2 12.6 309 22.5
2010-09-01 07:04:11 51°21.91 2°44.709 306.4 12.6 309 23.4
2010-09-01 07:04:16 51°21.921 2°44.687 306.5 12.7 308 23.4
2010-09-01 07:04:21 51°21.932 2°44.665 306.5 12.7 309 23.3
2010-09-01 07:04:26 51°21.942 2°44.643 306 12.6 307 23.6
2010-09-01 07:04:31 51°21.954 2°44.622 306.5 12.6 309 24
2010-09-01 07:04:37 51°21.966 2°44.595 305.8 12.6 307 24.1
2010-09-01 07:04:41 51°21.975 2°44.578 305.9 12.5 309 24
2010-09-01 07:04:46 51°21.986 2°44.556 306.4 12.6 307 23.1
2010-09-01 07:04:51 51°21.997 2°44.535 306.3 12.6 310 22
2010-09-01 07:04:57 51°22.011 2°44.509 306 12.7 309 21.5
2010-09-01 07:05:01 51°22.019 2°44.492 306.2 12.7 309 22
2010-09-01 07:05:06 51°22.03 2°44.47 306.3 12.6 309 23.2
2010-09-01 07:05:11 51°22.041 2°44.449 306.7 12.6 310 23
2010-09-01 07:05:16 51°22.052 2°44.427 306.6 12.6 309 23.2
2010-09-01 07:05:21 51°22.064 2°44.405 307 12.5 310 24
2010-09-01 07:05:25 51°22.072 2°44.388 306.4 12.6 308 23.6
2010-09-01 07:05:31 51°22.085 2°44.362 306.1 12.6 310 23.8
2010-09-01 07:05:36 51°22.096 2°44.341 306.3 12.6 309 23.7
2010-09-01 07:05:41 51°22.107 2°44.319 306.4 12.6 309 22.8
2010-09-01 07:05:46 51°22.119 2°44.298 306.5 12.7 310 23.7
2010-09-01 07:05:51 51°22.13 2°44.276 306.4 12.7 309 23.4
2010-09-01 07:05:56 51°22.141 2°44.255 305.9 12.6 310 23.9
2010-09-01 07:06:01 51°22.152 2°44.233 306.5 12.6 310 23.8
2010-09-01 07:06:05 51°22.16 2°44.215 306.1 12.6 308 23
2010-09-01 07:06:11 51°22.174 2°44.19 306.6 12.6 311 23.2
2010-09-01 07:06:16 51°22.185 2°44.168 306.3 12.6 308 24.4
2010-09-01 07:06:21 51°22.197 2°44.147 306.5 12.6 310 24.7
2010-09-01 07:06:26 51°22.207 2°44.125 306.5 12.5 308 25.1
2010-09-01 07:06:31 51°22.218 2°44.104 306.3 12.6 310 25.3
2010-09-01 07:06:36 51°22.23 2°44.082 306.5 12.6 309 25.4
2010-09-01 07:06:41 51°22.24 2°44.06 305.8 12.6 307 26
2010-09-01 07:06:45 51°22.249 2°44.043 306.1 12.6 310 26.4
2010-09-01 07:06:51 51°22.262 2°44.017 306.4 12.6 309 26.7
2010-09-01 07:06:56 51°22.274 2°43.996 306.3 12.5 310 26.5
2010-09-01 07:07:01 51°22.285 2°43.974 306.4 12.6 310 26.5
2010-09-01 07:07:06 51°22.296 2°43.953 306.3 12.5 309 26.2
2010-09-01 07:07:11 51°22.307 2°43.931 306 12.5 310 26.1
2010-09-01 07:07:17 51°22.32 2°43.905 306.4 12.6 309 24.5
2010-09-01 07:07:21 51°22.329 2°43.888 306.3 12.6 309 24.8
2010-09-01 07:07:25 51°22.338 2°43.871 305.9 12.6 310 26.5
2010-09-01 07:07:31 51°22.351 2°43.845 306.3 12.5 309 26.7
2010-09-01 07:07:36 51°22.362 2°43.824 306.2 12.4 310 26.6
2010-09-01 07:07:41 51°22.373 2°43.802 306.1 12.5 310 26.4
2010-09-01 07:07:46 51°22.384 2°43.781 306 12.5 309 26.6
2010-09-01 07:07:51 51°22.395 2°43.759 305.8 12.6 309 26.2
2010-09-01 07:07:56 51°22.405 2°43.737 305.5 12.5 308 25.2
2010-09-01 07:08:01 51°22.417 2°43.716 305.7 12.5 310 25.2
2010-09-01 07:08:05 51°22.426 2°43.699 306 12.6 309 24.9
2010-09-01 07:08:11 51°22.439 2°43.673 306 12.5 310 24.4
2010-09-01 07:08:16 51°22.45 2°43.652 306.3 12.6 310 23.8
2010-09-01 07:08:21 51°22.461 2°43.63 306 12.6 309 24.7
2010-09-01 07:08:26 51°22.472 2°43.608 306.2 12.6 310 23.5
2010-09-01 07:08:31 51°22.483 2°43.586 305.9 12.7 309 25
2010-09-01 07:08:37 51°22.497 2°43.562 306.4 12.5 311 26
2010-09-01 07:08:41 51°22.505 2°43.545 306.4 12.3 309 26.2
2010-09-01 07:08:46 51°22.515 2°43.526 306.3 11.1 310 26.3
2010-09-01 07:08:51 51°22.525 2°43.508 306 10.5 311 26.8
2010-09-01 07:08:57 51°22.536 2°43.488 306 10.1 311 27.1
2010-09-01 07:09:01 51°22.543 2°43.476 306 9.5 312 27.6
2010-09-01 07:09:06 51°22.551 2°43.461 306.1 8.9 311 27.6
2010-09-01 07:09:11 51°22.559 2°43.447 306 8.5 313 27.9
2010-09-01 07:09:16 51°22.566 2°43.434 306 7.9 312 28.1
2010-09-01 07:09:21 51°22.573 2°43.422 305.7 7.6 313 27.8
2010-09-01 07:09:25 51°22.578 2°43.412 305.9 7.2 312 27.7
2010-09-01 07:09:31 51°22.586 2°43.399 305.9 6.9 314 27.4
2010-09-01 07:09:36 51°22.593 2°43.388 306.2 6.6 314 26.7
2010-09-01 07:09:41 51°22.599 2°43.378 306.2 6.4 313 25.4
2010-09-01 07:09:46 51°22.605 2°43.369 306 6 314 23.8
2010-09-01 07:09:51 51°22.61 2°43.36 305.8 5.5 314 24.4
2010-09-01 07:09:56 51°22.616 2°43.352 305.6 5.4 316 24.8
2010-09-01 07:10:01 51°22.621 2°43.345 305.3 5.2 317 25
2010-09-01 07:10:05 51°22.624 2°43.338 305.2 4.9 317 25.4
2010-09-01 07:10:11 51°22.63 2°43.33 305.2 4.7 317 26.1
2010-09-01 07:10:16 51°22.635 2°43.323 305.1 4.6 317 26.4
2010-09-01 07:10:21 51°22.639 2°43.317 305.2 4.4 320 26.6
2010-09-01 07:10:26 51°22.644 2°43.311 305.2 4.1 320 26.3
2010-09-01 07:10:31 51°22.648 2°43.305 304.6 3.8 321 25.9
2010-09-01 07:10:36 51°22.651 2°43.301 304.4 3.4 322 26.2
2010-09-01 07:10:41 51°22.655 2°43.297 304.9 2.9 327 25.7
2010-09-01 07:10:45 51°22.657 2°43.295 306.4 2.3 335 25.5
2010-09-01 07:10:51 51°22.66 2°43.293 308.1 2 340 25.5
2010-09-01 07:10:56 51°22.662 2°43.293 311.1 1.6 347 25.5
2010-09-01 07:11:01 51°22.664 2°43.293 312.9 1.4 352 25.7
2010-09-01 07:11:06 51°22.666 2°43.293 315 1 3 25.8
2010-09-01 07:11:11 51°22.667 2°43.294 315.9 0.9 24 25.8
2010-09-01 07:11:16 51°22.668 2°43.296 316.5 1.1 52 26.2
2010-09-01 07:11:21 51°22.668 2°43.298 316.1 1 71 26.2
2010-09-01 07:11:25 51°22.668 2°43.299 315.3 0.9 68 26.2
2010-09-01 07:11:31 51°22.669 2°43.302 314.7 1 69 26.2
2010-09-01 07:11:36 51°22.67 2°43.303 314.1 1 65 25.9
2010-09-01 07:11:41 51°22.671 2°43.304 312.9 0.8 55 25.7
2010-09-01 07:11:46 51°22.672 2°43.305 311.5 0.7 28 25.9
2010-09-01 07:11:51 51°22.673 2°43.306 310.4 1 21 26.1
2010-09-01 07:11:56 51°22.674 2°43.307 308.6 0.9 24 25.9
2010-09-01 07:12:01 51°22.675 2°43.308 306.8 1 24 25.7
2010-09-01 07:12:05 51°22.676 2°43.308 305.1 0.8 30 25.5
2010-09-01 07:12:11 51°22.677 2°43.31 303.9 0.8 30 25.7
2010-09-01 07:12:16 51°22.678 2°43.31 302.7 0.8 24 25.8
2010-09-01 07:12:21 51°22.679 2°43.311 302 0.9 32 25.4
2010-09-01 07:12:26 51°22.68 2°43.313 301.1 0.9 37 25.3
2010-09-01 07:12:31 51°22.681 2°43.314 300.4 0.8 41 25.4
2010-09-01 07:12:36 51°22.682 2°43.315 299.5 0.9 32 25.4
2010-09-01 07:12:41 51°22.683 2°43.316 298.9 0.7 37 25.4
2010-09-01 07:12:45 51°22.684 2°43.317 298.1 0.6 38 25.8
2010-09-01 07:12:51 51°22.685 2°43.319 298.4 0.8 43 25.9
2010-09-01 07:12:56 51°22.686 2°43.32 297.6 1 46 24.5
2010-09-01 07:13:01 51°22.686 2°43.321 296.1 0.6 50 24.5
2010-09-01 07:13:06 51°22.687 2°43.322 295.9 0.7 42 25.2
2010-09-01 07:13:11 51°22.688 2°43.323 296 0.7 38 25.3
2010-09-01 07:13:16 51°22.689 2°43.324 296.1 1 36 24.9
2010-09-01 07:13:21 51°22.69 2°43.325 295.6 0.6 39 24.6
2010-09-01 07:13:25 51°22.69 2°43.326 295.3 0.8 45 24.2
2010-09-01 07:13:31 51°22.691 2°43.327 295.3 0.8 40 24.2
2010-09-01 07:13:36 51°22.692 2°43.328 295.3 0.7 43 24.3
2010-09-01 07:13:41 51°22.693 2°43.33 295.4 0.8 42 24.6
2010-09-01 07:13:46 51°22.694 2°43.33 295 0.7 32 24.3
2010-09-01 07:13:51 51°22.695 2°43.331 294.8 0.7 23 24.1
2010-09-01 07:13:57 51°22.696 2°43.331 294.3 0.6 19 24.4
2010-09-01 07:14:01 51°22.697 2°43.332 294 0.8 24 24.4
2010-09-01 07:14:05 51°22.697 2°43.333 293.2 0.7 32 24.5
2010-09-01 07:14:11 51°22.698 2°43.334 292.4 0.8 35 24.7
2010-09-01 07:14:16 51°22.699 2°43.335 292 0.8 37 24.6
2010-09-01 07:14:21 51°22.7 2°43.336 292 0.6 41 24.8
2010-09-01 07:14:26 51°22.7 2°43.337 292.2 0.8 41 25.1
2010-09-01 07:14:31 51°22.701 2°43.338 292.3 0.7 42 25.1
2010-09-01 07:14:36 51°22.702 2°43.339 292.5 0.7 39 25.5
2010-09-01 07:14:41 51°22.703 2°43.34 292.5 0.8 34 25.7
2010-09-01 07:14:45 51°22.704 2°43.34 292.6 0.8 32 25.9
2010-09-01 07:14:51 51°22.704 2°43.341 292.4 0.6 29 26.1
2010-09-01 07:14:56 51°22.706 2°43.342 291.9 0.7 21 26.5
2010-09-01 07:15:01 51°22.706 2°43.342 291.6 0.7 20 26.6
2010-09-01 07:15:06 51°22.707 2°43.343 291.1 0.7 22 26.8
2010-09-01 07:15:11 51°22.708 2°43.343 290.3 0.7 22 27.1
2010-09-01 07:15:17 51°22.709 2°43.344 289.9 0.7 21 27.1
2010-09-01 07:15:21 51°22.71 2°43.345 289.7 0.7 21 27
2010-09-01 07:15:26 51°22.71 2°43.345 289.6 0.6 25 27.3
2010-09-01 07:15:31 51°22.711 2°43.346 289.7 0.6 20 27.5
2010-09-01 07:15:37 51°22.712 2°43.346 289.6 0.7 22 27.5
2010-09-01 07:15:41 51°22.713 2°43.347 289.5 0.6 21 27.5
2010-09-01 07:15:46 51°22.714 2°43.347 289.8 0.7 16 27.8
2010-09-01 07:15:51 51°22.715 2°43.348 290 0.7 19 27.9
2010-09-01 07:15:57 51°22.716 2°43.349 290.2 0.7 33 27.4
2010-09-01 07:16:01 51°22.716 2°43.349 290.4 0.4 20 26.7
2010-09-01 07:16:06 51°22.717 2°43.349 290.9 0.6 13 25.8
2010-09-01 07:16:11 51°22.718 2°43.35 291.4 0.7 21 27.9
2010-09-01 07:16:17 51°22.719 2°43.351 291.9 0.7 27 27.7
2010-09-01 07:16:21 51°22.719 2°43.351 291.9 0.5 18 26.9
2010-09-01 07:16:26 51°22.72 2°43.351 292.2 0.6 18 26.2
2010-09-01 07:16:31 51°22.721 2°43.352 293.2 0.7 22 26.4
2010-09-01 07:16:37 51°22.722 2°43.353 293.8 0.6 23 26.4
2010-09-01 07:16:41 51°22.722 2°43.354 294.1 0.6 26 26.4
2010-09-01 07:16:46 51°22.723 2°43.354 294.9 0.6 25 25.8
2010-09-01 07:16:51 51°22.724 2°43.355 295.6 0.7 24 26
2010-09-01 07:16:56 51°22.724 2°43.355 295.9 0.5 18 25.5
2010-09-01 07:17:01 51°22.725 2°43.356 296.5 0.5 17 26.1
2010-09-01 07:17:06 51°22.726 2°43.356 297.2 0.7 30 25.4
2010-09-01 07:17:11 51°22.727 2°43.357 297.7 0.6 26 25.1
2010-09-01 07:17:16 51°22.727 2°43.357 298.1 0.5 16 25.8
2010-09-01 07:17:21 51°22.728 2°43.358 298.8 0.6 24 26
2010-09-01 07:17:26 51°22.729 2°43.359 299.8 0.6 33 25.9
2010-09-01 07:17:31 51°22.729 2°43.359 300.2 0.6 32 26
2010-09-01 07:17:36 51°22.73 2°43.36 300.6 0.7 30 26
2010-09-01 07:17:41 51°22.731 2°43.36 301.4 0.5 23 25.4
2010-09-01 07:17:45 51°22.731 2°43.36 301.5 0.5 27 25.7
2010-09-01 07:17:51 51°22.732 2°43.361 302.2 0.6 30 25.8
2010-09-01 07:17:56 51°22.732 2°43.362 302.8 0.5 32 25.9
2010-09-01 07:18:01 51°22.733 2°43.362 303.2 0.6 28 26.8
2010-09-01 07:18:06 51°22.734 2°43.364 303.8 0.6 44 27.5
2010-09-01 07:18:11 51°22.734 2°43.364 304.3 0.5 46 27.5
2010-09-01 07:18:17 51°22.735 2°43.365 304.9 0.5 43 27.9
2010-09-01 07:18:21 51°22.736 2°43.366 305.3 0.6 42 28.1
2010-09-01 07:18:25 51°22.736 2°43.366 305.7 0.6 38 27.7
2010-09-01 07:18:31 51°22.737 2°43.367 306 0.6 40 27.4
2010-09-01 07:18:36 51°22.737 2°43.368 306.5 0.5 43 27.4
2010-09-01 07:18:41 51°22.738 2°43.368 307.1 0.6 39 27
2010-09-01 07:18:46 51°22.738 2°43.369 307.5 0.6 34 26.4
2010-09-01 07:18:51 51°22.739 2°43.369 307.8 0.5 25 26.3
2010-09-01 07:18:56 51°22.74 2°43.371 308.3 0.6 36 26.5
2010-09-01 07:19:01 51°22.74 2°43.372 308.6 0.7 51 26.3
2010-09-01 07:19:05 51°22.741 2°43.373 308.6 0.5 52 26.2
2010-09-01 07:19:11 51°22.741 2°43.373 308.8 0.5 40 26.5